Esmond, Illinois
Current Conditions -  °F | °C
As of 5:15 PM on Friday 31 Oct 2014 (Local Time) from KRPJ Reporting Station
Broken Clouds Broken Clouds  
Wind Chill: 26°   Ceiling: 5000
Heat Index: 37°   Visibility: 10mi
Dew Point: 19°   Wind: 26mph
Humidity: 46%   Direction: 10°N
Pressure: 30.34"   Gusts: 33mph
Location:  42.03°N, 88.94°W
Report Text: KRPJ 312215Z AUTO 01023G29KT 10SM BKN050 03/M07 A3034 RMK AO2 T00301075
Loading
Personal Weather Stations






























Interactive Weather Map
Tropical Storm Tracking
New forecast layout! Learn more

10-Day Weather Forecast

Advertisements
Track Severe Weather on mobile